createdAt,value
2019-01-27T00:02:28.711Z,17.00
2019-01-27T00:05:04.866Z,18.30
2019-01-27T00:07:36.825Z,17.50
2019-01-27T00:10:12.730Z,16.77
2019-01-27T00:12:45.880Z,16.20
2019-01-27T00:15:19.995Z,17.05
2019-01-27T00:17:52.162Z,17.25
2019-01-27T00:20:26.072Z,17.95
2019-01-27T00:22:57.355Z,16.20
2019-01-27T00:25:28.614Z,16.40
2019-01-27T00:28:02.250Z,17.33
2019-01-27T00:30:36.158Z,15.87
2019-01-27T00:33:12.461Z,17.27
2019-01-27T00:35:44.032Z,15.27
2019-01-27T00:38:17.183Z,17.05
2019-01-27T00:40:49.346Z,15.97
2019-01-27T00:43:21.457Z,15.80
2019-01-27T00:45:54.215Z,16.73
2019-01-27T00:48:28.425Z,15.50
2019-01-27T00:51:00.079Z,16.17
2019-01-27T00:53:34.256Z,16.53
2019-01-27T00:56:06.916Z,15.37
2019-01-27T00:58:42.506Z,15.17
2019-01-27T01:01:14.171Z,15.68
2019-01-27T01:03:46.230Z,15.70
2019-01-27T01:06:20.434Z,15.30
2019-01-27T01:08:54.238Z,15.57
2019-01-27T01:11:29.835Z,16.17
2019-01-27T01:14:03.929Z,15.63
2019-01-27T01:16:36.485Z,16.80
2019-01-27T01:19:10.851Z,17.52
2019-01-27T01:21:44.324Z,18.57
2019-01-27T01:24:17.295Z,17.67
2019-01-27T01:26:50.486Z,16.40
2019-01-27T01:29:23.433Z,17.77
2019-01-27T01:31:57.507Z,20.07
2019-01-27T01:34:31.612Z,18.50
2019-01-27T01:37:05.928Z,20.43
2019-01-27T01:39:39.679Z,21.30
2019-01-27T01:42:13.350Z,17.70
2019-01-27T01:44:46.394Z,17.53
2019-01-27T01:47:18.531Z,18.37
2019-01-27T01:49:52.504Z,17.63
2019-01-27T01:52:26.492Z,18.37
2019-01-27T01:55:00.415Z,17.60
2019-01-27T01:57:32.482Z,16.80
2019-01-27T02:00:06.702Z,18.70
2019-01-27T02:02:39.612Z,19.62
2019-01-27T02:05:14.721Z,18.20
2019-01-27T02:07:47.994Z,19.73
2019-01-27T02:10:21.890Z,18.90
2019-01-27T02:12:54.636Z,18.20
2019-01-27T02:16:07.415Z,18.07
2019-01-27T02:18:43.140Z,17.77
2019-01-27T02:21:14.415Z,16.53
2019-01-27T02:23:47.588Z,18.17
2019-01-27T02:26:23.161Z,19.30
2019-01-27T02:28:54.486Z,18.20
2019-01-27T02:31:26.691Z,18.13
2019-01-27T02:33:57.948Z,19.00
2019-01-27T02:36:31.785Z,18.10
2019-01-27T02:39:09.120Z,17.93
2019-01-27T02:41:42.665Z,17.53
2019-01-27T02:44:13.985Z,18.03
2019-01-27T02:46:48.437Z,16.47
2019-01-27T02:49:20.671Z,16.90
2019-01-27T02:51:52.706Z,18.67
2019-01-27T02:54:28.140Z,16.13
2019-01-27T02:57:00.805Z,16.30
2019-01-27T02:59:35.346Z,16.30
2019-01-27T03:02:12.125Z,16.12
2019-01-27T03:04:44.766Z,16.77
2019-01-27T03:07:35.260Z,17.90
2019-01-27T03:10:12.718Z,19.47
2019-01-27T03:12:45.896Z,20.57
2019-01-27T03:15:18.723Z,20.23
2019-01-27T03:17:50.913Z,19.33
2019-01-27T03:20:23.793Z,19.10
2019-01-27T03:22:55.998Z,19.90
2019-01-27T03:25:29.953Z,20.00
2019-01-27T03:28:04.206Z,19.40
2019-01-27T03:30:35.858Z,18.67
2019-01-27T03:33:09.055Z,19.60
2019-01-27T03:35:43.687Z,19.23
2019-01-27T03:38:18.254Z,20.87
2019-01-27T03:40:51.235Z,20.43
2019-01-27T03:43:24.966Z,20.45
2019-01-27T03:45:57.943Z,19.73
2019-01-27T03:48:30.957Z,18.20
2019-01-27T03:51:04.765Z,20.23
2019-01-27T03:53:38.084Z,19.47
2019-01-27T03:56:13.915Z,20.90
2019-01-27T03:58:48.869Z,21.17
2019-01-27T04:01:21.284Z,19.95
2019-01-27T04:03:54.333Z,20.67
2019-01-27T04:06:25.610Z,20.00
2019-01-27T04:08:59.074Z,21.67
2019-01-27T04:11:31.963Z,19.37
2019-01-27T04:14:04.105Z,18.87
2019-01-27T04:16:35.349Z,20.70
2019-01-27T04:19:09.296Z,20.23
2019-01-27T04:21:42.859Z,20.30
2019-01-27T04:24:15.737Z,18.37
2019-01-27T04:26:47.215Z,19.43
2019-01-27T04:29:18.670Z,18.67
2019-01-27T04:31:49.970Z,19.07
2019-01-27T04:34:23.097Z,19.83
2019-01-27T04:36:54.538Z,19.70
2019-01-27T04:39:28.159Z,19.40
2019-01-27T04:41:59.417Z,17.93
2019-01-27T04:44:31.130Z,18.67
2019-01-27T04:47:02.405Z,19.13
2019-01-27T04:49:35.341Z,21.30
2019-01-27T04:52:09.387Z,21.70
2019-01-27T04:54:41.744Z,19.90
2019-01-27T04:57:13.523Z,20.80
2019-01-27T04:59:44.831Z,21.97
2019-01-27T05:02:16.075Z,21.10
2019-01-27T05:04:51.168Z,18.75
2019-01-27T05:07:23.144Z,21.60
2019-01-27T05:09:54.482Z,21.60
2019-01-27T05:12:25.749Z,24.00
2019-01-27T05:14:59.478Z,62.37
2019-01-27T05:17:33.329Z,39.83
2019-01-27T05:20:13.698Z,27.27
2019-01-27T05:22:47.435Z,28.87
2019-01-27T05:25:22.743Z,28.27
2019-01-27T05:27:55.597Z,27.90
2019-01-27T05:30:27.109Z,28.90
2019-01-27T05:33:02.824Z,26.27
2019-01-27T05:35:34.585Z,26.00
2019-01-27T05:38:10.693Z,26.57
2019-01-27T05:40:42.497Z,24.52
2019-01-27T05:43:14.070Z,27.70
2019-01-27T05:45:47.805Z,28.23
2019-01-27T05:48:19.474Z,26.60
2019-01-27T05:50:53.437Z,26.50
2019-01-27T05:53:26.550Z,28.60
2019-01-27T05:56:00.986Z,28.47
2019-01-27T05:58:34.152Z,31.87
2019-01-27T06:01:07.623Z,32.05
2019-01-27T06:03:39.870Z,32.23
2019-01-27T06:06:18.382Z,35.90
2019-01-27T06:08:50.922Z,34.08
2019-01-27T06:11:32.119Z,35.03
2019-01-27T06:14:13.000Z,37.40
2019-01-27T06:16:50.675Z,38.57
2019-01-27T06:19:28.158Z,33.77
2019-01-27T06:22:03.498Z,38.73
2019-01-27T06:24:37.885Z,42.08
2019-01-27T06:27:09.945Z,36.17
2019-01-27T06:29:43.726Z,39.43
2019-01-27T06:32:30.424Z,36.10
2019-01-27T06:35:06.921Z,37.05
2019-01-27T06:37:38.326Z,37.87
2019-01-27T06:40:11.933Z,37.70
2019-01-27T06:42:47.508Z,38.27
2019-01-27T06:45:22.657Z,41.35
2019-01-27T06:47:56.556Z,38.13
2019-01-27T06:50:29.952Z,35.77
2019-01-27T06:53:01.992Z,35.30
2019-01-27T06:55:34.969Z,34.67
2019-01-27T06:58:10.012Z,33.40
2019-01-27T07:01:04.873Z,34.73
2019-01-27T07:04:03.243Z,33.00
2019-01-27T07:07:10.053Z,37.90
2019-01-27T07:10:05.292Z,35.57
2019-01-27T07:13:09.261Z,35.23
2019-01-27T07:15:59.901Z,36.70
2019-01-27T07:19:06.104Z,35.20
2019-01-27T07:22:15.037Z,36.90
2019-01-27T07:25:12.552Z,35.25
2019-01-27T07:28:09.860Z,34.90
2019-01-27T07:31:11.949Z,36.08
2019-01-27T07:34:06.035Z,39.10
2019-01-27T07:36:57.279Z,47.73
2019-01-27T07:39:44.279Z,33.40
2019-01-27T07:42:28.827Z,35.83
2019-01-27T07:45:33.233Z,35.95
2019-01-27T07:48:22.978Z,35.20
2019-01-27T07:51:16.871Z,33.47
2019-01-27T07:54:06.548Z,32.13
2019-01-27T07:56:58.635Z,32.57
2019-01-27T07:59:57.713Z,34.13
2019-01-27T08:02:56.812Z,33.55
2019-01-27T08:05:51.283Z,32.40
2019-01-27T08:08:46.126Z,31.23
2019-01-27T08:11:40.342Z,32.53
2019-01-27T08:14:33.065Z,29.00
2019-01-27T08:17:24.554Z,30.33
2019-01-27T08:20:19.080Z,29.13
2019-01-27T08:23:20.235Z,28.77
2019-01-27T08:26:25.299Z,32.37
2019-01-27T08:29:04.807Z,33.63
2019-01-27T08:32:02.488Z,34.93
2019-01-27T08:35:03.230Z,37.13
2019-01-27T08:37:52.445Z,37.43
2019-01-27T08:40:35.848Z,35.27
2019-01-27T08:43:30.522Z,36.77
2019-01-27T08:46:19.942Z,25.40
2019-01-27T08:48:56.919Z,24.07
2019-01-27T08:51:33.962Z,29.30
2019-01-27T08:54:17.281Z,25.03
2019-01-27T08:57:01.532Z,24.83
2019-01-27T08:59:40.344Z,24.20
2019-01-27T09:02:46.102Z,25.27
2019-01-27T09:05:42.750Z,25.40
2019-01-27T09:08:35.996Z,23.33
2019-01-27T09:11:30.746Z,19.30
2019-01-27T09:14:22.558Z,17.15
2019-01-27T09:17:11.327Z,17.37
2019-01-27T09:20:10.176Z,16.40
2019-01-27T09:23:12.548Z,17.27
2019-01-27T09:26:09.579Z,15.45
2019-01-27T09:29:18.289Z,17.90
2019-01-27T09:32:21.800Z,16.70
2019-01-27T09:35:18.818Z,15.53
2019-01-27T09:38:05.873Z,16.70
2019-01-27T09:40:56.597Z,17.43
2019-01-27T09:43:41.336Z,18.27
2019-01-27T09:46:25.088Z,17.85
2019-01-27T09:49:10.749Z,19.50
2019-01-27T09:52:07.548Z,19.77
2019-01-27T09:54:56.391Z,20.03
2019-01-27T09:58:03.577Z,19.65
2019-01-27T10:00:49.748Z,20.87
2019-01-27T10:03:53.674Z,20.20
2019-01-27T10:06:46.196Z,19.70
2019-01-27T10:09:33.184Z,19.10
2019-01-27T10:12:21.266Z,18.80
2019-01-27T10:15:12.937Z,20.30
2019-01-27T10:18:00.457Z,20.37
2019-01-27T10:20:52.998Z,21.13
2019-01-27T10:23:49.793Z,20.17
2019-01-27T10:26:43.150Z,21.90
2019-01-27T10:29:34.371Z,19.57
2019-01-27T10:32:22.267Z,21.33
2019-01-27T10:35:01.467Z,20.87
2019-01-27T10:37:44.830Z,22.00
2019-01-27T10:40:31.354Z,20.60
2019-01-27T10:43:28.382Z,22.05
2019-01-27T10:46:18.760Z,21.83
2019-01-27T10:49:14.286Z,21.90
2019-01-27T10:52:01.879Z,21.23
2019-01-27T10:54:58.709Z,21.80
2019-01-27T10:57:40.317Z,32.20
2019-01-27T11:00:43.831Z,22.67
2019-01-27T11:03:23.841Z,20.77
2019-01-27T11:06:17.563Z,25.00
2019-01-27T11:09:08.766Z,21.03
2019-01-27T11:12:05.957Z,19.30
2019-01-27T11:15:06.192Z,20.90
2019-01-27T11:17:49.597Z,20.90
2019-01-27T11:20:46.103Z,20.30
2019-01-27T11:23:31.860Z,19.40
2019-01-27T11:26:21.977Z,20.67
2019-01-27T11:29:02.862Z,20.03
2019-01-27T11:32:00.238Z,19.80
2019-01-27T11:34:49.398Z,21.07
2019-01-27T11:37:43.886Z,21.67
2019-01-27T11:40:30.495Z,23.07
2019-01-27T11:43:22.081Z,22.40
2019-01-27T11:46:33.569Z,22.80
2019-01-27T11:49:37.093Z,22.73
2019-01-27T11:52:18.672Z,24.23
2019-01-27T11:54:50.950Z,22.90
2019-01-27T11:57:24.281Z,23.00
2019-01-27T11:59:55.839Z,22.90
2019-01-27T12:02:29.335Z,25.13
2019-01-27T12:05:02.975Z,25.83
2019-01-27T12:07:34.944Z,24.60
2019-01-27T12:10:11.931Z,22.67
2019-01-27T12:12:44.758Z,25.10
2019-01-27T12:15:20.482Z,24.63
2019-01-27T12:17:53.077Z,22.93
2019-01-27T12:20:24.359Z,24.50
2019-01-27T12:22:59.707Z,24.17
2019-01-27T12:25:33.146Z,23.23
2019-01-27T12:28:06.287Z,26.63
2019-01-27T12:30:37.542Z,25.80
2019-01-27T12:33:08.878Z,25.60
2019-01-27T12:35:40.381Z,26.73
2019-01-27T12:38:13.284Z,26.52
2019-01-27T12:40:48.857Z,25.47
2019-01-27T12:43:21.298Z,27.40
2019-01-27T12:45:55.345Z,27.53
2019-01-27T12:48:28.712Z,26.13
2019-01-27T12:51:01.867Z,25.20
2019-01-27T12:53:34.280Z,24.03
2019-01-27T12:56:07.656Z,25.10
2019-01-27T12:58:39.286Z,25.60
2019-01-27T13:01:13.695Z,26.30
2019-01-27T13:03:46.395Z,25.43
2019-01-27T13:06:18.412Z,25.70
2019-01-27T13:08:51.445Z,23.53
2019-01-27T13:11:22.768Z,24.92
2019-01-27T13:13:54.125Z,23.60
2019-01-27T13:16:27.436Z,22.10
2019-01-27T13:19:01.605Z,20.93
2019-01-27T13:21:35.775Z,18.63
2019-01-27T13:24:09.716Z,17.10
2019-01-27T13:26:43.328Z,17.00
2019-01-27T13:29:15.503Z,18.30
2019-01-27T13:31:48.676Z,18.40
2019-01-27T13:34:22.609Z,18.40
2019-01-27T13:36:55.582Z,19.70
2019-01-27T13:39:29.553Z,18.98
2019-01-27T13:42:01.550Z,17.70
2019-01-27T13:44:34.679Z,20.70
2019-01-27T13:47:05.989Z,21.80
2019-01-27T13:49:38.818Z,22.40
2019-01-27T13:52:10.611Z,22.47
2019-01-27T13:54:41.949Z,24.00
2019-01-27T13:57:13.548Z,22.83
2019-01-27T13:59:47.124Z,23.77
2019-01-27T14:02:19.670Z,24.20
2019-01-27T14:04:51.889Z,23.38
2019-01-27T14:07:26.532Z,22.25
2019-01-27T14:09:58.331Z,23.03
2019-01-27T14:12:30.292Z,22.77
2019-01-27T14:15:01.591Z,23.50
2019-01-27T14:17:34.877Z,20.90
2019-01-27T14:20:10.959Z,24.93
2019-01-27T14:22:42.878Z,23.50
2019-01-27T14:25:16.599Z,23.60
2019-01-27T14:27:52.089Z,23.62
2019-01-27T14:30:31.916Z,23.60
2019-01-27T14:33:06.149Z,24.67
2019-01-27T14:35:38.001Z,22.57
2019-01-27T14:38:10.574Z,21.07
2019-01-27T14:40:43.792Z,22.73
2019-01-27T14:43:16.728Z,24.18
2019-01-27T14:45:50.902Z,21.27
2019-01-27T14:48:25.718Z,17.33
2019-01-27T14:50:58.842Z,17.00
2019-01-27T14:53:30.475Z,16.07
2019-01-27T14:56:03.982Z,16.20
2019-01-27T14:58:39.571Z,14.90
2019-01-27T15:01:12.027Z,14.70
2019-01-27T15:03:46.037Z,15.40
2019-01-27T15:06:17.798Z,15.50
2019-01-27T15:08:50.061Z,19.67
2019-01-27T15:11:21.349Z,18.45
2019-01-27T15:13:52.969Z,16.77
2019-01-27T15:16:25.959Z,16.70
2019-01-27T15:18:58.128Z,17.63
2019-01-27T15:21:32.009Z,18.70
2019-01-27T15:24:06.182Z,18.10
2019-01-27T15:26:39.110Z,21.80
2019-01-27T15:29:11.016Z,24.47
2019-01-27T15:31:44.986Z,25.40
2019-01-27T15:34:20.642Z,27.60
2019-01-27T15:36:51.957Z,28.20
2019-01-27T15:39:27.641Z,31.33
2019-01-27T15:42:00.023Z,30.00
2019-01-27T15:44:34.106Z,33.63
2019-01-27T15:47:05.893Z,36.77
2019-01-27T15:49:39.194Z,54.20
2019-01-27T15:52:11.309Z,46.67
2019-01-27T15:54:44.250Z,32.57
2019-01-27T15:57:15.599Z,33.37
2019-01-27T15:59:49.317Z,34.70
2019-01-27T16:02:21.114Z,37.27
2019-01-27T16:04:54.253Z,42.87
2019-01-27T16:07:27.124Z,35.78
2019-01-27T16:09:59.318Z,33.77
2019-01-27T16:12:33.309Z,35.77
2019-01-27T16:15:10.201Z,35.53
2019-01-27T16:17:46.074Z,37.50
2019-01-27T16:20:18.300Z,41.03
2019-01-27T16:23:26.639Z,44.03
2019-01-27T16:26:00.765Z,44.57
2019-01-27T16:28:33.318Z,43.37
2019-01-27T16:31:33.209Z,43.33
2019-01-27T16:34:17.007Z,43.77
2019-01-27T16:36:48.266Z,43.93
2019-01-27T16:39:21.528Z,45.23
2019-01-27T16:41:55.047Z,46.27
2019-01-27T16:44:27.407Z,45.27
2019-01-27T16:47:01.548Z,44.30
2019-01-27T16:49:37.031Z,45.37
2019-01-27T16:52:08.738Z,46.68
2019-01-27T16:54:42.689Z,47.60
2019-01-27T16:57:14.332Z,48.20
2019-01-27T16:59:47.567Z,50.57
2019-01-27T17:02:19.045Z,49.85
2019-01-27T17:04:54.065Z,48.73
2019-01-27T17:07:26.666Z,50.45
2019-01-27T17:10:00.619Z,48.57
2019-01-27T17:12:34.557Z,49.83
2019-01-27T17:15:09.774Z,48.70
2019-01-27T17:17:42.930Z,51.40
2019-01-27T17:20:16.905Z,51.03
2019-01-27T17:22:50.647Z,53.50
2019-01-27T17:25:23.019Z,50.55
2019-01-27T17:27:55.611Z,51.90
2019-01-27T17:30:27.905Z,52.70
2019-01-27T17:33:01.063Z,54.70
2019-01-27T17:35:35.463Z,51.23
2019-01-27T17:38:08.670Z,52.27
2019-01-27T17:40:42.895Z,50.00
2019-01-27T17:43:15.597Z,50.60
2019-01-27T17:45:47.683Z,48.00
2019-01-27T17:48:20.772Z,50.23
2019-01-27T17:50:52.702Z,49.80
2019-01-27T17:53:24.137Z,50.70
2019-01-27T17:55:56.050Z,51.30
2019-01-27T17:58:54.362Z,49.77
2019-01-27T18:01:43.683Z,53.90
2019-01-27T18:04:41.608Z,52.03
2019-01-27T18:07:26.191Z,51.27
2019-01-27T18:10:04.085Z,48.83
2019-01-27T18:12:42.121Z,51.10
2019-01-27T18:15:14.182Z,50.43
2019-01-27T18:17:47.665Z,52.20
2019-01-27T18:20:19.407Z,48.80
2019-01-27T18:22:52.853Z,58.60
2019-01-27T18:25:28.742Z,59.90
2019-01-27T18:28:01.881Z,76.20
2019-01-27T18:30:34.918Z,77.93
2019-01-27T18:33:09.001Z,68.05
2019-01-27T18:35:42.227Z,90.57
2019-01-27T18:38:14.065Z,143.90
2019-01-27T18:40:47.905Z,111.90
2019-01-27T18:43:23.489Z,87.53
2019-01-27T18:45:56.137Z,90.50
2019-01-27T18:48:28.089Z,106.70
2019-01-27T18:51:02.798Z,74.40
2019-01-27T18:53:59.695Z,60.20
2019-01-27T18:56:43.593Z,65.50
2019-01-27T18:59:30.888Z,62.00
2019-01-27T19:02:23.097Z,59.23
2019-01-27T19:05:02.489Z,63.00
2019-01-27T19:07:51.303Z,55.10
2019-01-27T19:10:46.825Z,56.93
2019-01-27T19:13:30.456Z,75.60
2019-01-27T19:16:15.556Z,65.97
2019-01-27T19:19:24.225Z,60.50
2019-01-27T19:22:20.015Z,58.87
2019-01-27T19:25:13.039Z,55.52
2019-01-27T19:28:03.277Z,53.15
2019-01-27T19:30:44.306Z,51.23
2019-01-27T19:33:34.944Z,50.40
2019-01-27T19:36:27.490Z,56.13
2019-01-27T19:39:38.755Z,50.90
2019-01-27T19:42:33.476Z,53.50
2019-01-27T19:45:31.810Z,57.23
2019-01-27T19:48:11.462Z,50.40
2019-01-27T19:50:56.521Z,53.45
2019-01-27T19:53:47.325Z,52.47
2019-01-27T19:56:32.979Z,49.10
2019-01-27T19:59:15.072Z,56.57
2019-01-27T20:02:08.257Z,51.70
2019-01-27T20:05:00.273Z,53.70
2019-01-27T20:08:03.996Z,55.60
2019-01-27T20:11:03.838Z,49.05
2019-01-27T20:13:51.879Z,48.85
2019-01-27T20:16:43.924Z,49.77
2019-01-27T20:19:33.261Z,50.30
2019-01-27T20:22:13.106Z,48.00
2019-01-27T20:25:00.320Z,52.27
2019-01-27T20:27:50.740Z,50.10
2019-01-27T20:31:00.266Z,52.37
2019-01-27T20:33:58.236Z,49.50
2019-01-27T20:36:53.991Z,51.60
2019-01-27T20:39:34.305Z,51.30
2019-01-27T20:42:19.402Z,51.43
2019-01-27T20:45:08.833Z,52.93
2019-01-27T20:48:16.400Z,56.67
2019-01-27T20:51:13.748Z,55.43
2019-01-27T20:54:00.562Z,55.63
2019-01-27T20:56:57.762Z,55.60
2019-01-27T20:59:53.042Z,54.37
2019-01-27T21:02:42.426Z,57.78
2019-01-27T21:05:30.359Z,58.13
2019-01-27T21:08:20.587Z,54.57
2019-01-27T21:11:13.833Z,53.60
2019-01-27T21:14:04.432Z,53.70
2019-01-27T21:17:13.009Z,58.60
2019-01-27T21:19:51.572Z,60.17
2019-01-27T21:22:24.589Z,59.10
2019-01-27T21:24:57.470Z,57.10
2019-01-27T21:27:30.639Z,69.07
2019-01-27T21:30:02.234Z,60.30
2019-01-27T21:32:35.613Z,64.00
2019-01-27T21:35:10.630Z,57.73
2019-01-27T21:37:43.949Z,58.60
2019-01-27T21:40:18.265Z,56.13
2019-01-27T21:42:51.721Z,56.57
2019-01-27T21:45:23.079Z,58.83
2019-01-27T21:47:54.326Z,58.47
2019-01-27T21:50:27.770Z,55.17
2019-01-27T21:53:01.747Z,55.37
2019-01-27T21:55:35.742Z,55.53
2019-01-27T21:58:09.751Z,54.47
2019-01-27T22:00:43.684Z,58.48
2019-01-27T22:03:14.990Z,55.38
2019-01-27T22:05:46.295Z,57.60
2019-01-27T22:08:19.715Z,57.57
2019-01-27T22:10:53.802Z,57.43
2019-01-27T22:13:27.767Z,56.80
2019-01-27T22:16:00.890Z,56.00
2019-01-27T22:18:32.339Z,54.63
2019-01-27T22:21:04.021Z,58.47
2019-01-27T22:23:36.930Z,56.77
2019-01-27T22:26:09.813Z,56.23
2019-01-27T22:28:42.926Z,59.07
2019-01-27T22:31:15.737Z,57.03
2019-01-27T22:33:46.992Z,56.97
2019-01-27T22:36:20.791Z,58.13
2019-01-27T22:38:52.050Z,57.20
2019-01-27T22:41:24.927Z,57.35
2019-01-27T22:43:56.967Z,54.23
2019-01-27T22:46:30.583Z,60.27
2019-01-27T22:49:01.843Z,53.55
2019-01-27T22:51:34.998Z,62.87
2019-01-27T22:54:07.093Z,58.87
2019-01-27T22:56:40.040Z,56.40
2019-01-27T22:59:11.326Z,56.80
2019-01-27T23:01:45.405Z,59.15
2019-01-27T23:04:19.294Z,60.50
2019-01-27T23:06:53.903Z,54.73
2019-01-27T23:09:27.145Z,57.00
2019-01-27T23:12:00.054Z,59.47
2019-01-27T23:14:32.459Z,58.10
2019-01-27T23:17:06.413Z,56.73
2019-01-27T23:19:38.136Z,57.83
2019-01-27T23:22:10.156Z,61.80
2019-01-27T23:24:44.080Z,56.23
2019-01-27T23:27:15.760Z,60.90
2019-01-27T23:29:49.212Z,58.50
2019-01-27T23:32:24.808Z,61.53
2019-01-27T23:34:57.273Z,59.20
2019-01-27T23:37:31.223Z,56.83
2019-01-27T23:40:06.229Z,60.45
2019-01-27T23:42:39.209Z,60.33
2019-01-27T23:45:13.332Z,59.00
2019-01-27T23:47:46.241Z,58.93
2019-01-27T23:50:19.354Z,57.43
2019-01-27T23:52:53.298Z,56.10
2019-01-27T23:55:25.189Z,57.90
2019-01-27T23:57:57.084Z,60.07
